createdAt,value
2022-08-25T00:01:20.349Z,22.77
2022-08-25T00:05:22.287Z,22.72
2022-08-25T00:09:27.430Z,22.70
2022-08-25T00:13:29.688Z,22.65
2022-08-25T00:17:31.359Z,22.63
2022-08-25T00:21:33.441Z,22.62
2022-08-25T00:25:35.153Z,22.60
2022-08-25T00:29:38.090Z,22.58
2022-08-25T00:33:39.971Z,22.56
2022-08-25T00:37:41.603Z,22.53
2022-08-25T00:41:43.814Z,22.51
2022-08-25T00:45:46.056Z,22.48
2022-08-25T00:49:56.380Z,22.45
2022-08-25T00:53:58.572Z,22.44
2022-08-25T00:58:07.612Z,22.41
2022-08-25T01:02:10.240Z,22.39
2022-08-25T01:06:15.773Z,22.36
2022-08-25T01:10:19.081Z,22.34
2022-08-25T01:14:23.185Z,22.31
2022-08-25T01:18:25.615Z,22.29
2022-08-25T01:22:27.206Z,22.27
2022-08-25T01:26:32.893Z,22.26
2022-08-25T01:30:35.087Z,22.25
2022-08-25T01:34:41.418Z,22.24
2022-08-25T01:38:43.054Z,22.22
2022-08-25T01:43:00.209Z,22.19
2022-08-25T01:47:03.448Z,22.17
2022-08-25T01:51:05.164Z,22.13
2022-08-25T01:55:07.275Z,22.09
2022-08-25T01:59:09.309Z,22.03
2022-08-25T02:03:18.591Z,22.01
2022-08-25T02:07:20.833Z,21.98
2022-08-25T02:11:24.113Z,21.95
2022-08-25T02:15:25.838Z,21.92
2022-08-25T02:19:27.497Z,21.90
2022-08-25T02:23:29.182Z,21.87
2022-08-25T02:27:30.897Z,21.84
2022-08-25T02:31:32.466Z,21.79
2022-08-25T02:35:34.546Z,21.75
2022-08-25T02:39:36.748Z,21.69
2022-08-25T02:43:39.677Z,21.64
2022-08-25T02:47:41.713Z,21.60
2022-08-25T02:51:43.326Z,21.57
2022-08-25T02:55:45.519Z,21.52
2022-08-25T02:59:48.454Z,21.50
2022-08-25T03:03:52.124Z,21.47
2022-08-25T03:08:02.856Z,21.45
2022-08-25T03:12:05.178Z,21.42
2022-08-25T03:16:10.936Z,21.39
2022-08-25T03:20:13.547Z,21.36
2022-08-25T03:24:15.204Z,21.34
2022-08-25T03:28:17.643Z,21.31
2022-08-25T03:32:19.219Z,21.28
2022-08-25T03:36:20.866Z,21.24
2022-08-25T03:40:23.346Z,21.21
2022-08-25T03:44:25.068Z,21.18
2022-08-25T03:48:26.658Z,21.17
2022-08-25T03:52:28.377Z,21.14
2022-08-25T03:56:30.808Z,21.10
2022-08-25T04:00:32.453Z,21.05
2022-08-25T04:04:35.159Z,21.01
2022-08-25T04:08:37.778Z,20.96
2022-08-25T04:12:39.810Z,20.92
2022-08-25T04:16:41.549Z,20.89
2022-08-25T04:20:46.772Z,20.83
2022-08-25T04:24:48.778Z,20.79
2022-08-25T04:28:50.971Z,20.76
2022-08-25T04:32:52.577Z,20.71
2022-08-25T04:36:54.447Z,20.67
2022-08-25T04:40:58.648Z,20.61
2022-08-25T04:45:01.859Z,20.57
2022-08-25T04:49:05.028Z,20.59
2022-08-25T04:53:06.833Z,20.63
2022-08-25T04:57:08.471Z,20.62
2022-08-25T05:01:15.535Z,20.64
2022-08-25T05:05:17.207Z,20.68
2022-08-25T05:09:19.915Z,20.66
2022-08-25T05:13:24.805Z,20.62
2022-08-25T05:17:27.965Z,20.61
2022-08-25T05:21:29.687Z,20.59
2022-08-25T05:25:32.767Z,20.59
2022-08-25T05:29:34.377Z,20.65
2022-08-25T05:33:37.198Z,20.69
2022-08-25T05:37:38.914Z,20.72
2022-08-25T05:41:40.853Z,20.78
2022-08-25T05:45:42.536Z,20.82
2022-08-25T05:49:44.146Z,20.89
2022-08-25T05:53:48.333Z,21.01
2022-08-25T05:57:50.133Z,21.15
2022-08-25T06:02:10.569Z,21.31
2022-08-25T06:06:12.257Z,21.47
2022-08-25T06:10:14.530Z,21.52
2022-08-25T06:14:16.655Z,21.56
2022-08-25T06:18:18.239Z,21.60
2022-08-25T06:22:19.873Z,21.64
2022-08-25T06:26:21.742Z,21.71
2022-08-25T06:30:28.979Z,21.79
2022-08-25T06:34:30.827Z,21.87
2022-08-25T06:38:32.526Z,21.97
2022-08-25T06:42:34.840Z,22.07
2022-08-25T06:46:37.289Z,22.11
2022-08-25T06:50:40.277Z,22.19
2022-08-25T06:54:42.146Z,22.26
2022-08-25T06:58:44.039Z,22.35
2022-08-25T07:02:45.662Z,22.46
2022-08-25T07:06:47.850Z,22.56
2022-08-25T07:10:49.517Z,22.68
2022-08-25T07:15:10.195Z,22.79
2022-08-25T07:19:14.763Z,22.90
2022-08-25T07:27:18.381Z,23.08
2022-08-25T07:31:20.095Z,23.14
2022-08-25T07:35:24.595Z,23.23
2022-08-25T07:39:29.134Z,23.31
2022-08-25T07:43:30.869Z,23.39
2022-08-25T07:47:33.179Z,23.47
2022-08-25T07:51:35.025Z,23.56
2022-08-25T07:55:36.816Z,23.64
2022-08-25T07:59:42.584Z,23.73
2022-08-25T08:03:50.568Z,23.81
2022-08-25T08:07:54.137Z,23.91
2022-08-25T08:11:55.706Z,24.02
2022-08-25T08:15:57.461Z,24.13
2022-08-25T08:19:59.543Z,24.23
2022-08-25T08:24:05.071Z,24.34
2022-08-25T08:28:12.641Z,24.45
2022-08-25T08:32:15.023Z,24.55
2022-08-25T08:36:18.537Z,24.65
2022-08-25T08:40:21.000Z,24.78
2022-08-25T08:44:46.292Z,24.90
2022-08-25T08:48:54.474Z,25.01
2022-08-25T08:53:35.042Z,25.12
2022-08-25T08:57:44.956Z,25.21
2022-08-25T09:01:59.424Z,25.33
2022-08-25T09:06:07.771Z,25.48
2022-08-25T09:10:10.864Z,25.54
2022-08-25T09:14:30.409Z,25.63
2022-08-25T09:19:00.114Z,25.68
2022-08-25T09:23:07.473Z,25.72
2022-08-25T09:27:20.194Z,25.77
2022-08-25T09:31:35.778Z,25.90
2022-08-25T09:35:40.710Z,26.03
2022-08-25T09:39:42.383Z,26.15
2022-08-25T09:43:53.991Z,26.28
2022-08-25T09:47:55.627Z,26.34
2022-08-25T09:52:36.327Z,26.48
2022-08-25T09:56:56.547Z,26.61
2022-08-25T10:01:03.876Z,26.69
2022-08-25T10:05:24.733Z,26.82
2022-08-25T10:09:40.784Z,26.89
2022-08-25T10:13:48.983Z,26.95
2022-08-25T10:17:54.737Z,26.97
2022-08-25T10:22:22.070Z,27.02
2022-08-25T10:26:36.895Z,27.06
2022-08-25T10:31:01.517Z,27.05
2022-08-25T10:35:13.200Z,26.98
2022-08-25T10:39:36.687Z,26.91
2022-08-25T10:44:33.730Z,26.84
2022-08-25T10:49:08.564Z,26.77
2022-08-25T10:53:29.101Z,26.78
2022-08-25T10:57:34.218Z,26.84
2022-08-25T11:01:55.904Z,26.90
2022-08-25T11:06:12.422Z,27.05
2022-08-25T11:10:20.080Z,27.19
2022-08-25T11:14:25.130Z,27.31
2022-08-25T11:18:31.822Z,27.43
2022-08-25T11:22:40.705Z,27.67
2022-08-25T11:26:48.550Z,27.81
2022-08-25T11:30:57.439Z,27.91
2022-08-25T11:35:02.276Z,28.01
2022-08-25T11:39:11.466Z,28.09
2022-08-25T11:43:35.637Z,28.18
2022-08-25T11:47:58.902Z,28.31
2022-08-25T11:52:03.029Z,28.44
2022-08-25T11:56:33.188Z,28.51
2022-08-25T12:00:43.347Z,28.58
2022-08-25T12:04:45.756Z,28.62
2022-08-25T12:09:12.715Z,28.63
2022-08-25T12:13:40.974Z,28.68
2022-08-25T12:17:42.589Z,28.69
2022-08-25T12:21:44.274Z,28.71
2022-08-25T12:25:53.418Z,28.77
2022-08-25T12:30:05.603Z,28.80
2022-08-25T12:34:40.744Z,28.84
2022-08-25T12:38:52.117Z,28.95
2022-08-25T12:43:04.427Z,28.97
2022-08-25T12:47:32.407Z,29.05
2022-08-25T12:51:34.015Z,29.14
2022-08-25T12:55:39.732Z,29.17
2022-08-25T12:59:48.728Z,29.20
2022-08-25T13:04:11.677Z,29.35
2022-08-25T13:08:46.941Z,29.42
2022-08-25T13:13:07.192Z,29.41
2022-08-25T13:17:09.986Z,29.48
2022-08-25T13:21:24.701Z,29.47
2022-08-25T13:25:32.703Z,29.41
2022-08-25T13:29:48.764Z,29.41
2022-08-25T13:33:59.721Z,29.38
2022-08-25T13:38:19.433Z,29.28
2022-08-25T13:42:23.940Z,29.23
2022-08-25T13:46:31.697Z,29.25
2022-08-25T13:50:37.354Z,29.25
2022-08-25T13:54:41.947Z,29.30
2022-08-25T13:58:46.715Z,29.32
2022-08-25T14:02:52.170Z,29.37
2022-08-25T14:07:21.222Z,29.38
2022-08-25T14:11:41.041Z,29.36
2022-08-25T14:15:45.906Z,29.33
2022-08-25T14:19:47.727Z,29.34
2022-08-25T14:23:49.513Z,29.28
2022-08-25T14:28:16.180Z,29.31
2022-08-25T14:32:17.894Z,29.33
2022-08-25T14:36:20.906Z,29.35
2022-08-25T14:40:22.844Z,29.35
2022-08-25T14:44:24.555Z,29.34
2022-08-25T14:48:52.126Z,29.30
2022-08-25T14:52:53.773Z,29.29
2022-08-25T14:57:00.032Z,29.31
2022-08-25T15:01:06.055Z,29.32
2022-08-25T15:05:12.492Z,29.30
2022-08-25T15:09:18.117Z,29.25
2022-08-25T15:13:21.489Z,29.12
2022-08-25T15:17:23.438Z,28.95
2022-08-25T15:21:25.090Z,28.86
2022-08-25T15:25:27.026Z,28.69
2022-08-25T15:29:30.532Z,28.34
2022-08-25T15:33:32.126Z,27.95
2022-08-25T15:37:35.672Z,27.68
2022-08-25T15:41:37.866Z,27.35
2022-08-25T15:45:40.102Z,27.07
2022-08-25T15:49:43.097Z,26.83
2022-08-25T15:53:45.946Z,26.51
2022-08-25T15:57:47.921Z,26.25
2022-08-25T16:01:53.580Z,25.96
2022-08-25T16:05:55.633Z,25.70
2022-08-25T16:09:58.320Z,25.45
2022-08-25T16:14:00.076Z,25.24
2022-08-25T16:18:04.792Z,25.13
2022-08-25T16:22:08.943Z,25.12
2022-08-25T16:26:13.055Z,24.96
2022-08-25T16:30:17.506Z,24.76
2022-08-25T16:34:19.470Z,24.64
2022-08-25T16:38:21.051Z,24.50
2022-08-25T16:42:22.655Z,24.45
2022-08-25T16:46:24.300Z,24.41
2022-08-25T16:50:26.053Z,24.35
2022-08-25T16:54:48.410Z,24.22
2022-08-25T16:58:53.989Z,24.17
2022-08-25T17:02:59.489Z,24.10
2022-08-25T17:07:01.959Z,23.98
2022-08-25T17:11:10.974Z,23.86
2022-08-25T17:15:12.569Z,23.74
2022-08-25T17:19:16.078Z,23.68
2022-08-25T17:23:18.206Z,23.63
2022-08-25T17:27:23.440Z,23.62
2022-08-25T17:31:25.586Z,23.61
2022-08-25T17:35:27.437Z,23.58
2022-08-25T17:39:29.122Z,23.48
2022-08-25T17:43:31.318Z,23.43
2022-08-25T17:47:33.080Z,23.37
2022-08-25T17:51:35.249Z,23.32
2022-08-25T17:55:38.895Z,23.27
2022-08-25T17:59:44.197Z,23.19
2022-08-25T18:03:46.616Z,23.15
2022-08-25T18:07:48.230Z,23.06
2022-08-25T18:11:52.516Z,22.99
2022-08-25T18:15:54.130Z,22.87
2022-08-25T18:19:55.770Z,22.82
2022-08-25T18:23:57.499Z,22.74
2022-08-25T18:27:59.138Z,22.69
2022-08-25T18:32:00.881Z,22.64
2022-08-25T18:36:02.721Z,22.54
2022-08-25T18:40:23.812Z,22.42
2022-08-25T18:44:25.567Z,22.28
2022-08-25T18:48:27.631Z,22.19
2022-08-25T18:52:29.234Z,22.06
2022-08-25T18:56:31.075Z,21.95
2022-08-25T19:00:33.819Z,21.86
2022-08-25T19:04:35.503Z,21.82
2022-08-25T19:08:39.494Z,21.81
2022-08-25T19:12:43.594Z,21.82
2022-08-25T19:16:45.783Z,21.80
2022-08-25T19:20:47.545Z,21.78
2022-08-25T19:24:49.720Z,21.75
2022-08-25T19:28:52.709Z,21.71
2022-08-25T19:32:55.416Z,21.69
2022-08-25T19:37:02.140Z,21.71
2022-08-25T19:41:09.042Z,21.65
2022-08-25T19:45:16.050Z,21.60
2022-08-25T19:49:27.670Z,21.54
2022-08-25T19:53:34.529Z,21.51
2022-08-25T19:57:42.991Z,21.49
2022-08-25T20:01:47.292Z,21.45
2022-08-25T20:05:51.160Z,21.46
2022-08-25T20:09:54.058Z,21.48
2022-08-25T20:13:59.307Z,21.47
2022-08-25T20:18:03.656Z,21.41
2022-08-25T20:22:06.465Z,21.38
2022-08-25T20:26:12.818Z,21.37
2022-08-25T20:30:28.980Z,21.31
2022-08-25T20:34:30.826Z,21.26
2022-08-25T20:38:34.276Z,21.22
2022-08-25T20:42:35.994Z,21.23
2022-08-25T20:46:39.300Z,21.22
2022-08-25T20:50:40.995Z,21.19
2022-08-25T20:54:49.321Z,21.14
2022-08-25T20:58:52.067Z,21.11
2022-08-25T21:02:54.133Z,21.09
2022-08-25T21:06:57.098Z,21.08
2022-08-25T21:10:58.829Z,21.08
2022-08-25T21:15:00.512Z,21.08
2022-08-25T21:19:02.478Z,21.08
2022-08-25T21:23:04.168Z,21.04
2022-08-25T21:27:08.255Z,21.00
2022-08-25T21:31:11.177Z,20.96
2022-08-25T21:35:13.225Z,20.87
2022-08-25T21:39:15.056Z,20.81
2022-08-25T21:43:18.631Z,20.76
2022-08-25T21:47:21.607Z,20.75
2022-08-25T21:51:30.980Z,20.72
2022-08-25T21:55:38.065Z,20.66
2022-08-25T21:59:43.772Z,20.68
2022-08-25T22:03:47.101Z,20.67
2022-08-25T22:07:49.032Z,20.67
2022-08-25T22:11:50.908Z,20.64
2022-08-25T22:15:52.949Z,20.61
2022-08-25T22:19:55.739Z,20.57
2022-08-25T22:23:57.562Z,20.56
2022-08-25T22:27:59.138Z,20.56
2022-08-25T22:32:02.420Z,20.55
2022-08-25T22:36:13.642Z,20.51
2022-08-25T22:40:15.482Z,20.50
2022-08-25T22:44:19.019Z,20.49
2022-08-25T22:48:20.780Z,20.48
2022-08-25T22:52:22.843Z,20.49
2022-08-25T22:56:37.364Z,20.51
2022-08-25T23:00:40.145Z,20.52
2022-08-25T23:04:43.537Z,20.52
2022-08-25T23:08:45.343Z,20.54
2022-08-25T23:12:46.939Z,20.52
2022-08-25T23:16:50.116Z,20.51
2022-08-25T23:21:10.571Z,20.52
2022-08-25T23:25:12.225Z,20.49
2022-08-25T23:29:17.910Z,20.48
2022-08-25T23:33:21.484Z,20.46
2022-08-25T23:37:23.149Z,20.46
2022-08-25T23:41:25.911Z,20.45
2022-08-25T23:45:28.342Z,20.43
2022-08-25T23:49:32.642Z,20.39
2022-08-25T23:53:35.638Z,20.38
2022-08-25T23:57:37.232Z,20.34
